sensor_id;sensor_type;location;lat;lon;timestamp;pressure;altitude;pressure_sealevel;temperature;humidity
61035;BME280;46916;40.564;-7.958;2024-03-23T00:54:07;97245.97;;;19.31;62.17
61035;BME280;46916;40.564;-7.958;2024-03-23T00:56:07;97238.97;;;19.30;62.18
61035;BME280;46916;40.564;-7.958;2024-03-23T00:58:08;97246.94;;;19.30;61.84
61035;BME280;46916;40.564;-7.958;2024-03-23T01:00:09;97255.94;;;19.29;61.93
61035;BME280;46916;40.564;-7.958;2024-03-23T01:02:11;97248.53;;;19.24;61.99
61035;BME280;46916;40.564;-7.958;2024-03-23T01:04:11;97249.09;;;19.20;62.28
61035;BME280;46916;40.564;-7.958;2024-03-23T01:06:12;97249.69;;;19.15;62.20
61035;BME280;46916;40.564;-7.958;2024-03-23T01:08:13;97244.94;;;19.11;62.47
61035;BME280;46916;40.564;-7.958;2024-03-23T01:10:14;97246.94;;;19.09;62.63
61035;BME280;46916;40.564;-7.958;2024-03-23T01:12:14;97243.91;;;19.12;62.16
61035;BME280;46916;40.564;-7.958;2024-03-23T01:14:15;97239.88;;;19.16;61.72
61035;BME280;46916;40.564;-7.958;2024-03-23T01:16:16;97237.47;;;19.21;61.40
61035;BME280;46916;40.564;-7.958;2024-03-23T01:18:17;97233.44;;;19.25;60.66
61035;BME280;46916;40.564;-7.958;2024-03-23T01:20:18;97229.59;;;19.27;60.56
61035;BME280;46916;40.564;-7.958;2024-03-23T01:22:19;97228.34;;;19.30;60.88
61035;BME280;46916;40.564;-7.958;2024-03-23T01:24:19;97233.88;;;19.28;60.68
61035;BME280;46916;40.564;-7.958;2024-03-23T01:26:20;97232.41;;;19.26;60.62
61035;BME280;46916;40.564;-7.958;2024-03-23T01:28:21;97231.59;;;19.25;60.20
61035;BME280;46916;40.564;-7.958;2024-03-23T01:30:22;97229.75;;;19.26;59.87
61035;BME280;46916;40.564;-7.958;2024-03-23T01:32:23;97228.47;;;19.22;60.24
61035;BME280;46916;40.564;-7.958;2024-03-23T01:34:23;97229.88;;;19.18;60.30
61035;BME280;46916;40.564;-7.958;2024-03-23T01:36:25;97228.81;;;19.12;60.61
61035;BME280;46916;40.564;-7.958;2024-03-23T01:38:26;97227.16;;;19.11;60.34
61035;BME280;46916;40.564;-7.958;2024-03-23T01:40:26;97217.75;;;19.09;60.17
61035;BME280;46916;40.564;-7.958;2024-03-23T01:42:31;97215.28;;;19.07;60.02
61035;BME280;46916;40.564;-7.958;2024-03-23T01:44:32;97216.91;;;19.08;59.69
61035;BME280;46916;40.564;-7.958;2024-03-23T01:46:33;97213.00;;;19.04;59.97
61035;BME280;46916;40.564;-7.958;2024-03-23T01:48:34;97214.59;;;18.98;60.40
61035;BME280;46916;40.564;-7.958;2024-03-23T01:50:35;97214.31;;;18.93;60.75
61035;BME280;46916;40.564;-7.958;2024-03-23T01:52:36;97212.59;;;18.86;60.98
61035;BME280;46916;40.564;-7.958;2024-03-23T01:54:36;97208.66;;;18.81;60.88
61035;BME280;46916;40.564;-7.958;2024-03-23T01:56:38;97207.22;;;18.79;60.93
61035;BME280;46916;40.564;-7.958;2024-03-23T01:58:39;97203.66;;;18.72;61.18
61035;BME280;46916;40.564;-7.958;2024-03-23T02:00:40;97209.78;;;18.72;61.11
61035;BME280;46916;40.564;-7.958;2024-03-23T02:02:44;97212.63;;;18.71;60.81
61035;BME280;46916;40.564;-7.958;2024-03-23T02:04:45;97200.66;;;18.75;60.44
61035;BME280;46916;40.564;-7.958;2024-03-23T02:06:46;97201.25;;;18.77;60.18
61035;BME280;46916;40.564;-7.958;2024-03-23T02:08:48;97197.22;;;18.81;60.24
61035;BME280;46916;40.564;-7.958;2024-03-23T02:10:49;97203.56;;;18.80;60.67
61035;BME280;46916;40.564;-7.958;2024-03-23T02:12:50;97199.63;;;18.76;60.76
61035;BME280;46916;40.564;-7.958;2024-03-23T02:14:51;97203.47;;;18.73;60.56
61035;BME280;46916;40.564;-7.958;2024-03-23T02:16:52;97197.53;;;18.71;60.51
61035;BME280;46916;40.564;-7.958;2024-03-23T02:18:52;97199.44;;;18.77;60.03
61035;BME280;46916;40.564;-7.958;2024-03-23T02:20:53;97196.34;;;18.74;60.18
61035;BME280;46916;40.564;-7.958;2024-03-23T02:22:54;97204.13;;;18.75;60.26
61035;BME280;46916;40.564;-7.958;2024-03-23T02:24:54;97214.53;;;18.77;59.71
61035;BME280;46916;40.564;-7.958;2024-03-23T02:26:55;97205.19;;;18.81;59.29
61035;BME280;46916;40.564;-7.958;2024-03-23T02:28:56;97213.44;;;18.86;58.98
61035;BME280;46916;40.564;-7.958;2024-03-23T02:30:56;97220.94;;;18.83;59.28
61035;BME280;46916;40.564;-7.958;2024-03-23T02:32:57;97218.47;;;18.81;59.27
61035;BME280;46916;40.564;-7.958;2024-03-23T02:34:58;97218.41;;;18.74;59.72
61035;BME280;46916;40.564;-7.958;2024-03-23T02:36:58;97220.22;;;18.74;59.65
61035;BME280;46916;40.564;-7.958;2024-03-23T02:38:59;97218.97;;;18.70;59.64
61035;BME280;46916;40.564;-7.958;2024-03-23T02:41:03;97221.41;;;18.71;59.55
61035;BME280;46916;40.564;-7.958;2024-03-23T02:43:04;97216.00;;;18.65;59.71
61035;BME280;46916;40.564;-7.958;2024-03-23T02:45:05;97214.34;;;18.64;59.85
61035;BME280;46916;40.564;-7.958;2024-03-23T02:47:06;97212.06;;;18.61;59.83
61035;BME280;46916;40.564;-7.958;2024-03-23T02:49:07;97209.97;;;18.56;59.81
61035;BME280;46916;40.564;-7.958;2024-03-23T02:51:07;97216.53;;;18.60;59.51
61035;BME280;46916;40.564;-7.958;2024-03-23T02:53:08;97215.72;;;18.60;59.67
61035;BME280;46916;40.564;-7.958;2024-03-23T02:55:09;97212.06;;;18.61;59.38
61035;BME280;46916;40.564;-7.958;2024-03-23T02:57:10;97208.44;;;18.62;59.50
61035;BME280;46916;40.564;-7.958;2024-03-23T02:59:11;97213.72;;;18.62;59.30
61035;BME280;46916;40.564;-7.958;2024-03-23T03:01:12;97210.69;;;18.65;59.27
61035;BME280;46916;40.564;-7.958;2024-03-23T03:03:12;97214.16;;;18.65;59.26
61035;BME280;46916;40.564;-7.958;2024-03-23T03:05:13;97214.34;;;18.64;59.29
61035;BME280;46916;40.564;-7.958;2024-03-23T03:07:14;97213.72;;;18.62;59.35
61035;BME280;46916;40.564;-7.958;2024-03-23T03:09:15;97201.66;;;18.59;59.51
61035;BME280;46916;40.564;-7.958;2024-03-23T03:11:16;97204.41;;;18.66;59.42
61035;BME280;46916;40.564;-7.958;2024-03-23T03:13:16;97203.13;;;18.62;59.58
61035;BME280;46916;40.564;-7.958;2024-03-23T03:15:17;97201.75;;;18.66;59.15
61035;BME280;46916;40.564;-7.958;2024-03-23T03:17:18;97206.03;;;18.67;58.90
61035;BME280;46916;40.564;-7.958;2024-03-23T03:19:19;97196.03;;;18.69;59.00
61035;BME280;46916;40.564;-7.958;2024-03-23T03:21:20;97200.00;;;18.73;58.67
61035;BME280;46916;40.564;-7.958;2024-03-23T03:23:21;97200.38;;;18.70;58.62
61035;BME280;46916;40.564;-7.958;2024-03-23T03:25:21;97192.56;;;18.68;58.64
61035;BME280;46916;40.564;-7.958;2024-03-23T03:27:22;97188.91;;;18.69;58.47
61035;BME280;46916;40.564;-7.958;2024-03-23T03:29:23;97199.50;;;18.69;58.52
61035;BME280;46916;40.564;-7.958;2024-03-23T03:31:24;97195.59;;;18.65;58.75
61035;BME280;46916;40.564;-7.958;2024-03-23T03:33:26;97204.94;;;18.61;58.83
61035;BME280;46916;40.564;-7.958;2024-03-23T03:35:27;97201.84;;;18.58;58.58
61035;BME280;46916;40.564;-7.958;2024-03-23T03:37:27;97210.22;;;18.61;58.36
61035;BME280;46916;40.564;-7.958;2024-03-23T03:39:28;97213.63;;;18.55;58.51
61035;BME280;46916;40.564;-7.958;2024-03-23T03:41:29;97211.81;;;18.55;58.39
61035;BME280;46916;40.564;-7.958;2024-03-23T03:43:30;97216.09;;;18.56;58.08
61035;BME280;46916;40.564;-7.958;2024-03-23T03:45:30;97222.88;;;18.59;57.85
61035;BME280;46916;40.564;-7.958;2024-03-23T03:47:31;97214.34;;;18.64;57.90
61035;BME280;46916;40.564;-7.958;2024-03-23T03:49:32;97204.75;;;18.63;57.94
61035;BME280;46916;40.564;-7.958;2024-03-23T03:51:33;97210.44;;;18.60;57.83
61035;BME280;46916;40.564;-7.958;2024-03-23T03:53:33;97219.19;;;18.60;57.91
61035;BME280;46916;40.564;-7.958;2024-03-23T03:55:34;97218.03;;;18.63;57.92
61035;BME280;46916;40.564;-7.958;2024-03-23T03:57:34;97215.53;;;18.61;57.76
61035;BME280;46916;40.564;-7.958;2024-03-23T03:59:35;97220.41;;;18.58;58.01
61035;BME280;46916;40.564;-7.958;2024-03-23T04:01:36;97219.75;;;18.55;58.04
61035;BME280;46916;40.564;-7.958;2024-03-23T04:03:36;97222.16;;;18.50;58.21
61035;BME280;46916;40.564;-7.958;2024-03-23T04:05:37;97219.88;;;18.47;58.09
61035;BME280;46916;40.564;-7.958;2024-03-23T04:07:38;97220.88;;;18.46;58.17
61035;BME280;46916;40.564;-7.958;2024-03-23T04:09:39;97226.34;;;18.45;57.89
61035;BME280;46916;40.564;-7.958;2024-03-23T04:11:39;97224.59;;;18.52;57.52
61035;BME280;46916;40.564;-7.958;2024-03-23T04:13:40;97218.22;;;18.46;57.74
61035;BME280;46916;40.564;-7.958;2024-03-23T04:15:42;97223.25;;;18.41;57.85
61035;BME280;46916;40.564;-7.958;2024-03-23T04:17:43;97223.88;;;18.43;57.74
61035;BME280;46916;40.564;-7.958;2024-03-23T04:19:44;97223.88;;;18.43;57.46
61035;BME280;46916;40.564;-7.958;2024-03-23T04:21:44;97221.59;;;18.40;57.40
61035;BME280;46916;40.564;-7.958;2024-03-23T04:23:45;97224.53;;;18.45;57.42
61035;BME280;46916;40.564;-7.958;2024-03-23T04:25:46;97228.28;;;18.51;57.16
61035;BME280;46916;40.564;-7.958;2024-03-23T04:27:47;97232.09;;;18.48;57.08
61035;BME280;46916;40.564;-7.958;2024-03-23T04:29:51;97239.06;;;18.49;57.18
61035;BME280;46916;40.564;-7.958;2024-03-23T04:31:52;97238.97;;;18.43;57.36
61035;BME280;46916;40.564;-7.958;2024-03-23T04:33:52;97243.47;;;18.42;57.45
61035;BME280;46916;40.564;-7.958;2024-03-23T04:35:53;97246.28;;;18.41;57.75
61035;BME280;46916;40.564;-7.958;2024-03-23T04:37:54;97243.63;;;18.41;57.70
61035;BME280;46916;40.564;-7.958;2024-03-23T04:39:56;97258.16;;;18.45;57.85
61035;BME280;46916;40.564;-7.958;2024-03-23T04:41:56;97267.13;;;18.44;57.97
61035;BME280;46916;40.564;-7.958;2024-03-23T04:43:57;97263.03;;;18.41;58.14
61035;BME280;46916;40.564;-7.958;2024-03-23T04:45:58;97266.50;;;18.42;58.06
61035;BME280;46916;40.564;-7.958;2024-03-23T04:47:59;97276.00;;;18.36;58.29
61035;BME280;46916;40.564;-7.958;2024-03-23T04:49:59;97274.63;;;18.40;58.21
61035;BME280;46916;40.564;-7.958;2024-03-23T04:52:03;97274.00;;;18.38;58.47
61035;BME280;46916;40.564;-7.958;2024-03-23T04:54:04;97270.06;;;18.34;58.49
61035;BME280;46916;40.564;-7.958;2024-03-23T04:56:06;97270.06;;;18.34;58.97
61035;BME280;46916;40.564;-7.958;2024-03-23T04:58:06;97270.78;;;18.28;59.27
61035;BME280;46916;40.564;-7.958;2024-03-23T05:00:08;97276.91;;;18.28;59.53
61035;BME280;46916;40.564;-7.958;2024-03-23T05:02:17;97272.81;;;18.26;59.59
61035;BME280;46916;40.564;-7.958;2024-03-23T05:04:18;97280.09;;;18.24;60.23
61035;BME280;46916;40.564;-7.958;2024-03-23T05:06:19;97284.50;;;18.17;60.54
61035;BME280;46916;40.564;-7.958;2024-03-23T05:08:19;97282.22;;;18.14;60.78
61035;BME280;46916;40.564;-7.958;2024-03-23T05:10:20;97274.97;;;18.07;61.25
61035;BME280;46916;40.564;-7.958;2024-03-23T05:12:21;97288.22;;;18.07;61.53
61035;BME280;46916;40.564;-7.958;2024-03-23T05:14:21;97281.63;;;18.03;61.64
61035;BME280;46916;40.564;-7.958;2024-03-23T05:16:22;97276.72;;;18.00;62.00
61035;BME280;46916;40.564;-7.958;2024-03-23T05:18:23;97281.16;;;18.00;62.29
61035;BME280;46916;40.564;-7.958;2024-03-23T05:20:27;97281.16;;;18.00;62.43
61035;BME280;46916;40.564;-7.958;2024-03-23T05:22:27;97290.59;;;18.02;62.61
61035;BME280;46916;40.564;-7.958;2024-03-23T05:24:28;97285.94;;;18.04;62.56
61035;BME280;46916;40.564;-7.958;2024-03-23T05:26:29;97290.13;;;17.99;63.01
61035;BME280;46916;40.564;-7.958;2024-03-23T05:28:30;97295.41;;;17.99;62.97
61035;BME280;46916;40.564;-7.958;2024-03-23T05:30:30;97289.09;;;18.00;63.10
61035;BME280;46916;40.564;-7.958;2024-03-23T05:32:31;97293.31;;;17.94;63.09
61035;BME280;46916;40.564;-7.958;2024-03-23T05:34:32;97288.09;;;17.86;63.80
61035;BME280;46916;40.564;-7.958;2024-03-23T05:36:33;97283.25;;;17.90;63.54
61035;BME280;46916;40.564;-7.958;2024-03-23T05:38:33;97286.72;;;17.90;63.63
61035;BME280;46916;40.564;-7.958;2024-03-23T05:40:34;97290.84;;;17.93;63.79
61035;BME280;46916;40.564;-7.958;2024-03-23T05:42:37;97285.00;;;17.97;63.56
61035;BME280;46916;40.564;-7.958;2024-03-23T05:44:38;97289.50;;;17.97;63.79
61035;BME280;46916;40.564;-7.958;2024-03-23T05:46:38;97293.03;;;17.89;63.68
61035;BME280;46916;40.564;-7.958;2024-03-23T05:48:39;97296.84;;;17.87;64.36
61035;BME280;46916;40.564;-7.958;2024-03-23T05:50:40;97298.13;;;17.76;64.91
61035;BME280;46916;40.564;-7.958;2024-03-23T05:52:40;97310.19;;;17.70;65.20
61035;BME280;46916;40.564;-7.958;2024-03-23T05:54:44;97309.56;;;17.68;65.12
61035;BME280;46916;40.564;-7.958;2024-03-23T05:56:44;97307.06;;;17.67;65.21
61035;BME280;46916;40.564;-7.958;2024-03-23T05:58:45;97311.41;;;17.68;65.28
61035;BME280;46916;40.564;-7.958;2024-03-23T06:00:46;97313.03;;;17.69;65.08
61035;BME280;46916;40.564;-7.958;2024-03-23T06:02:47;97311.09;;;17.63;65.27
61035;BME280;46916;40.564;-7.958;2024-03-23T06:04:48;97330.00;;;17.60;65.55
61035;BME280;46916;40.564;-7.958;2024-03-23T06:06:49;97314.38;;;17.65;65.13
61035;BME280;46916;40.564;-7.958;2024-03-23T06:08:49;97318.75;;;17.57;65.39
61035;BME280;46916;40.564;-7.958;2024-03-23T06:10:50;97317.63;;;17.52;65.88
61035;BME280;46916;40.564;-7.958;2024-03-23T06:12:51;97322.56;;;17.55;65.56
61035;BME280;46916;40.564;-7.958;2024-03-23T06:14:54;97319.28;;;17.53;65.16
61035;BME280;46916;40.564;-7.958;2024-03-23T06:16:55;97315.97;;;17.51;65.59
61035;BME280;46916;40.564;-7.958;2024-03-23T06:18:56;97313.03;;;17.46;65.64
61035;BME280;46916;40.564;-7.958;2024-03-23T06:20:57;97317.63;;;17.52;65.54
61035;BME280;46916;40.564;-7.958;2024-03-23T06:22:57;97329.19;;;17.51;65.57
61035;BME280;46916;40.564;-7.958;2024-03-23T06:24:58;97330.09;;;17.43;65.57
61035;BME280;46916;40.564;-7.958;2024-03-23T06:26:59;97323.50;;;17.39;65.87
61035;BME280;46916;40.564;-7.958;2024-03-23T06:28:59;97331.50;;;17.31;66.10
61035;BME280;46916;40.564;-7.958;2024-03-23T06:31:00;97333.97;;;17.32;65.87
61035;BME280;46916;40.564;-7.958;2024-03-23T06:33:01;97332.31;;;17.31;66.17
61035;BME280;46916;40.564;-7.958;2024-03-23T06:35:02;97328.00;;;17.30;65.90
61035;BME280;46916;40.564;-7.958;2024-03-23T06:37:08;97330.50;;;17.32;65.87
61035;BME280;46916;40.564;-7.958;2024-03-23T06:39:10;97328.19;;;17.29;65.62
61035;BME280;46916;40.564;-7.958;2024-03-23T06:41:12;97331.50;;;17.31;65.83
61035;BME280;46916;40.564;-7.958;2024-03-23T06:43:13;97323.56;;;17.31;65.52
61035;BME280;46916;40.564;-7.958;2024-03-23T06:45:14;97336.13;;;17.29;65.71
61035;BME280;46916;40.564;-7.958;2024-03-23T06:47:15;97339.78;;;17.28;65.77
61035;BME280;46916;40.564;-7.958;2024-03-23T06:49:15;97339.44;;;17.31;65.60
61035;BME280;46916;40.564;-7.958;2024-03-23T06:51:16;97335.16;;;17.22;65.58
61035;BME280;46916;40.564;-7.958;2024-03-23T06:53:17;97347.00;;;17.34;65.40
61035;BME280;46916;40.564;-7.958;2024-03-23T06:55:18;97340.41;;;17.30;65.12
61035;BME280;46916;40.564;-7.958;2024-03-23T06:57:18;97346.41;;;17.24;65.41
61035;BME280;46916;40.564;-7.958;2024-03-23T06:59:19;97352.00;;;17.29;65.13
61035;BME280;46916;40.564;-7.958;2024-03-23T07:01:20;97360.28;;;17.26;65.19
61035;BME280;46916;40.564;-7.958;2024-03-23T07:03:21;97363.47;;;17.21;65.43
61035;BME280;46916;40.564;-7.958;2024-03-23T07:05:22;97364.75;;;17.25;64.91
61035;BME280;46916;40.564;-7.958;2024-03-23T07:07:23;97370.28;;;17.16;65.26
61035;BME280;46916;40.564;-7.958;2024-03-23T07:09:24;97370.53;;;17.29;64.91
61035;BME280;46916;40.564;-7.958;2024-03-23T07:11:26;97378.84;;;17.18;65.01
61035;BME280;46916;40.564;-7.958;2024-03-23T07:13:27;97378.84;;;17.18;65.17
61035;BME280;46916;40.564;-7.958;2024-03-23T07:15:28;97384.16;;;17.18;65.02
61035;BME280;46916;40.564;-7.958;2024-03-23T07:17:28;97380.66;;;17.25;64.29
61035;BME280;46916;40.564;-7.958;2024-03-23T07:19:29;97393.72;;;17.27;64.25
61035;BME280;46916;40.564;-7.958;2024-03-23T07:21:30;97393.19;;;17.31;64.06
61035;BME280;46916;40.564;-7.958;2024-03-23T07:23:30;97393.72;;;17.27;64.04
61035;BME280;46916;40.564;-7.958;2024-03-23T07:25:31;97388.88;;;17.30;63.81
61035;BME280;46916;40.564;-7.958;2024-03-23T07:27:32;97390.06;;;17.28;63.89
61035;BME280;46916;40.564;-7.958;2024-03-23T07:29:34;97393.53;;;17.28;64.02
61035;BME280;46916;40.564;-7.958;2024-03-23T07:31:34;97392.22;;;17.24;64.12
61035;BME280;46916;40.564;-7.958;2024-03-23T07:33:37;97397.16;;;17.36;63.32
61035;BME280;46916;40.564;-7.958;2024-03-23T07:35:38;97383.97;;;17.27;63.47
61035;BME280;46916;40.564;-7.958;2024-03-23T07:37:39;97386.09;;;17.32;63.20
61035;BME280;46916;40.564;-7.958;2024-03-23T07:39:40;97392.72;;;17.28;63.82
61035;BME280;46916;40.564;-7.958;2024-03-23T07:41:44;97402.78;;;17.32;63.92
61035;BME280;46916;40.564;-7.958;2024-03-23T07:43:46;97397.84;;;17.29;63.74
61035;BME280;46916;40.564;-7.958;2024-03-23T07:45:54;97400.66;;;17.28;63.52
61035;BME280;46916;40.564;-7.958;2024-03-23T07:47:54;97402.97;;;17.31;63.54
61035;BME280;46916;40.564;-7.958;2024-03-23T07:49:55;97386.09;;;17.32;63.83
61035;BME280;46916;40.564;-7.958;2024-03-23T07:51:56;97394.38;;;17.29;63.96
61035;BME280;46916;40.564;-7.958;2024-03-23T07:53:56;97404.31;;;17.27;64.23
61035;BME280;46916;40.564;-7.958;2024-03-23T07:56:00;97400.31;;;17.31;64.00
61035;BME280;46916;40.564;-7.958;2024-03-23T07:58:01;97395.13;;;17.38;63.80
61035;BME280;46916;40.564;-7.958;2024-03-23T08:00:02;97402.59;;;17.34;63.91
61035;BME280;46916;40.564;-7.958;2024-03-23T08:02:04;97385.13;;;17.25;64.27
61035;BME280;46916;40.564;-7.958;2024-03-23T08:04:05;97401.47;;;17.28;64.74
61035;BME280;46916;40.564;-7.958;2024-03-23T08:06:17;97405.09;;;17.36;64.39
61035;BME280;46916;40.564;-7.958;2024-03-23T08:08:18;97412.56;;;17.32;64.43
61035;BME280;46916;40.564;-7.958;2024-03-23T08:10:18;97415.00;;;17.33;64.74
61035;BME280;46916;40.564;-7.958;2024-03-23T08:12:19;97417.63;;;17.42;64.34
61035;BME280;46916;40.564;-7.958;2024-03-23T08:14:20;97423.44;;;17.37;65.00
61035;BME280;46916;40.564;-7.958;2024-03-23T08:16:21;97422.75;;;17.43;64.50
61035;BME280;46916;40.564;-7.958;2024-03-23T08:18:22;97420.91;;;17.52;64.39
61035;BME280;46916;40.564;-7.958;2024-03-23T08:20:22;97427.00;;;17.52;64.44
61035;BME280;46916;40.564;-7.958;2024-03-23T08:22:23;97436.41;;;17.55;64.17
61035;BME280;46916;40.564;-7.958;2024-03-23T08:24:24;97421.72;;;17.52;64.42
61035;BME280;46916;40.564;-7.958;2024-03-23T08:26:24;97432.13;;;17.54;64.75
61035;BME280;46916;40.564;-7.958;2024-03-23T08:28:26;97432.78;;;17.56;64.42
61035;BME280;46916;40.564;-7.958;2024-03-23T08:30:28;97430.63;;;17.60;64.59
61035;BME280;46916;40.564;-7.958;2024-03-23T08:32:28;97430.28;;;17.54;64.88
61035;BME280;46916;40.564;-7.958;2024-03-23T08:34:29;97433.13;;;17.53;65.02
61035;BME280;46916;40.564;-7.958;2024-03-23T08:36:30;97434.91;;;17.61;64.66
61035;BME280;46916;40.564;-7.958;2024-03-23T08:38:31;97436.56;;;17.62;64.48
61035;BME280;46916;40.564;-7.958;2024-03-23T08:40:34;97445.03;;;17.57;65.19
61035;BME280;46916;40.564;-7.958;2024-03-23T08:42:35;97442.53;;;17.64;64.46
61035;BME280;46916;40.564;-7.958;2024-03-23T08:44:37;97454.75;;;17.65;64.77
61035;BME280;46916;40.564;-7.958;2024-03-23T08:46:37;97450.56;;;17.70;65.04
61035;BME280;46916;40.564;-7.958;2024-03-23T08:48:40;97442.13;;;17.75;64.96
61035;BME280;46916;40.564;-7.958;2024-03-23T08:50:41;97445.09;;;17.80;65.16
61035;BME280;46916;40.564;-7.958;2024-03-23T08:52:42;97448.81;;;17.94;64.22
61035;BME280;46916;40.564;-7.958;2024-03-23T08:54:42;97455.59;;;17.96;63.94
61035;BME280;46916;40.564;-7.958;2024-03-23T08:56:43;97451.59;;;18.00;63.53
61035;BME280;46916;40.564;-7.958;2024-03-23T08:58:44;97452.41;;;18.01;63.80
61035;BME280;46916;40.564;-7.958;2024-03-23T09:00:44;97446.94;;;18.02;63.65
61035;BME280;46916;40.564;-7.958;2024-03-23T09:02:47;97452.91;;;18.04;63.70
61035;BME280;46916;40.564;-7.958;2024-03-23T09:04:48;97460.47;;;18.07;63.64
61035;BME280;46916;40.564;-7.958;2024-03-23T09:06:49;97459.13;;;18.12;63.42
61035;BME280;46916;40.564;-7.958;2024-03-23T09:08:50;97474.88;;;18.13;63.83
61035;BME280;46916;40.564;-7.958;2024-03-23T09:10:51;97465.91;;;18.14;63.06
61035;BME280;46916;40.564;-7.958;2024-03-23T09:12:52;97477.47;;;18.21;63.23
61035;BME280;46916;40.564;-7.958;2024-03-23T09:14:53;97493.31;;;18.29;62.88
61035;BME280;46916;40.564;-7.958;2024-03-23T09:16:54;97474.22;;;18.34;62.87
61035;BME280;46916;40.564;-7.958;2024-03-23T09:18:54;97468.09;;;18.34;63.13
61035;BME280;46916;40.564;-7.958;2024-03-23T09:20:55;97470.38;;;18.37;63.28
61035;BME280;46916;40.564;-7.958;2024-03-23T09:22:57;97476.50;;;18.37;63.23
61035;BME280;46916;40.564;-7.958;2024-03-23T09:24:58;97481.56;;;18.47;62.93
61035;BME280;46916;40.564;-7.958;2024-03-23T09:26:58;97476.38;;;18.53;62.59
61035;BME280;46916;40.564;-7.958;2024-03-23T09:28:59;97478.38;;;18.51;63.09
61035;BME280;46916;40.564;-7.958;2024-03-23T09:31:07;97477.84;;;18.56;63.08
61035;BME280;46916;40.564;-7.958;2024-03-23T09:33:11;97474.56;;;18.69;62.49
61035;BME280;46916;40.564;-7.958;2024-03-23T09:35:12;97488.38;;;18.64;62.09
61035;BME280;46916;40.564;-7.958;2024-03-23T09:37:13;97486.38;;;18.66;61.55
61035;BME280;46916;40.564;-7.958;2024-03-23T09:39:14;97479.47;;;18.57;62.50
61035;BME280;46916;40.564;-7.958;2024-03-23T09:41:15;97491.22;;;18.63;61.99
61035;BME280;46916;40.564;-7.958;2024-03-23T09:43:16;97484.63;;;18.59;62.21
61035;BME280;46916;40.564;-7.958;2024-03-23T09:45:21;97484.31;;;18.76;61.83
61035;BME280;46916;40.564;-7.958;2024-03-23T09:47:22;97490.16;;;18.72;62.53
61035;BME280;46916;40.564;-7.958;2024-03-23T09:49:23;97490.56;;;18.84;61.95
61035;BME280;46916;40.564;-7.958;2024-03-23T09:51:25;97484.81;;;18.95;60.69
61035;BME280;46916;40.564;-7.958;2024-03-23T09:53:25;97487.94;;;18.98;60.28
61035;BME280;46916;40.564;-7.958;2024-03-23T09:55:26;97488.47;;;18.94;60.97
61035;BME280;46916;40.564;-7.958;2024-03-23T09:57:27;97492.41;;;18.98;61.02
61035;BME280;46916;40.564;-7.958;2024-03-23T09:59:29;97495.34;;;19.03;60.26
61035;BME280;46916;40.564;-7.958;2024-03-23T10:01:30;97484.19;;;19.08;60.15
61035;BME280;46916;40.564;-7.958;2024-03-23T10:03:31;97488.13;;;19.12;59.66
61035;BME280;46916;40.564;-7.958;2024-03-23T10:05:32;97482.63;;;19.13;59.30
61035;BME280;46916;40.564;-7.958;2024-03-23T10:07:36;97491.78;;;19.11;59.83
61035;BME280;46916;40.564;-7.958;2024-03-23T10:09:36;97487.31;;;19.11;59.54
61035;BME280;46916;40.564;-7.958;2024-03-23T10:11:37;97490.78;;;19.12;59.33
61035;BME280;46916;40.564;-7.958;2024-03-23T10:13:44;97489.50;;;19.08;59.45
61035;BME280;46916;40.564;-7.958;2024-03-23T10:15:54;97495.91;;;19.13;59.99
61035;BME280;46916;40.564;-7.958;2024-03-23T10:17:56;97486.81;;;19.22;58.49
61035;BME280;46916;40.564;-7.958;2024-03-23T10:19:56;97491.72;;;19.19;58.97
61035;BME280;46916;40.564;-7.958;2024-03-23T10:21:58;97506.97;;;19.17;59.54
61035;BME280;46916;40.564;-7.958;2024-03-23T10:24:07;97481.09;;;19.19;59.25
61035;BME280;46916;40.564;-7.958;2024-03-23T10:26:21;97478.16;;;19.28;58.42
61035;BME280;46916;40.564;-7.958;2024-03-23T10:28:22;97502.66;;;19.30;58.37
61035;BME280;46916;40.564;-7.958;2024-03-23T10:30:23;97487.75;;;19.29;58.56
61035;BME280;46916;40.564;-7.958;2024-03-23T10:32:27;97484.28;;;19.29;58.37
61035;BME280;46916;40.564;-7.958;2024-03-23T10:34:28;97479.78;;;19.29;58.69
61035;BME280;46916;40.564;-7.958;2024-03-23T10:36:29;97472.84;;;19.28;58.66
61035;BME280;46916;40.564;-7.958;2024-03-23T10:38:31;97464.97;;;19.35;58.77
61035;BME280;46916;40.564;-7.958;2024-03-23T10:40:36;97456.00;;;19.36;58.56
61035;BME280;46916;40.564;-7.958;2024-03-23T10:42:37;97466.25;;;19.39;58.37
61035;BME280;46916;40.564;-7.958;2024-03-23T10:44:38;97469.06;;;19.38;58.27
61035;BME280;46916;40.564;-7.958;2024-03-23T10:46:39;97465.41;;;19.39;58.67
61035;BME280;46916;40.564;-7.958;2024-03-23T10:48:40;97471.56;;;19.39;58.51
61035;BME280;46916;40.564;-7.958;2024-03-23T10:50:41;97466.88;;;19.41;58.43
61035;BME280;46916;40.564;-7.958;2024-03-23T10:52:46;97459.72;;;19.42;58.52
61035;BME280;46916;40.564;-7.958;2024-03-23T10:54:50;97467.13;;;19.46;59.31
61035;BME280;46916;40.564;-7.958;2024-03-23T10:57:16;97457.16;;;19.63;58.22
61035;BME280;46916;40.564;-7.958;2024-03-23T10:59:18;97458.88;;;19.71;57.21
61035;BME280;46916;40.564;-7.958;2024-03-23T11:01:19;97453.00;;;19.75;56.74
61035;BME280;46916;40.564;-7.958;2024-03-23T11:03:33;97446.06;;;19.74;56.78
61035;BME280;46916;40.564;-7.958;2024-03-23T11:05:35;97444.63;;;19.72;57.02
61035;BME280;46916;40.564;-7.958;2024-03-23T11:07:35;97445.03;;;19.75;56.84
61035;BME280;46916;40.564;-7.958;2024-03-23T11:09:42;97445.47;;;19.79;56.65
61035;BME280;46916;40.564;-7.958;2024-03-23T11:11:45;97439.34;;;19.78;56.33
61035;BME280;46916;40.564;-7.958;2024-03-23T11:13:51;97435.25;;;19.76;56.61
61035;BME280;46916;40.564;-7.958;2024-03-23T11:15:52;97437.72;;;19.77;56.98
61035;BME280;46916;40.564;-7.958;2024-03-23T11:18:06;97434.03;;;19.78;56.10
61035;BME280;46916;40.564;-7.958;2024-03-23T11:20:11;97430.44;;;19.86;56.43
61035;BME280;46916;40.564;-7.958;2024-03-23T11:22:12;97440.06;;;19.87;56.18
61035;BME280;46916;40.564;-7.958;2024-03-23T11:24:13;97429.31;;;19.95;55.93
61035;BME280;46916;40.564;-7.958;2024-03-23T11:26:15;97426.75;;;19.87;55.57
61035;BME280;46916;40.564;-7.958;2024-03-23T11:28:16;97414.88;;;19.83;56.38